Time;durP1;ratioP1;P1;durP2;ratioP2;P2;SDS_P1;SDS_P2;PMS_P1;PMS_P2;Temp;Humidity;BMP_temperature;BMP_pressure;BME280_temperature;BME280_humidity;BME280_pressure;Samples;Min_cycle;Max_cycle;Signal;HPM_P1;HPM_P2
2022/11/03 00:01:11;;;;;;;;;;;;;;;13.34;54.09;95783.69;5034101;28;978;-59
2022/11/03 00:03:37;;;;;;;;;;;;;;;13.37;54.29;95791.41;5034054;28;1132;-58
2022/11/03 00:06:04;;;;;;;;;;;;;;;13.28;54.54;95787.00;5033960;28;1025;-58
2022/11/03 00:08:31;;;;;;;;;;;;;;;13.14;55.01;95787.59;5033833;28;1061;-58
2022/11/03 00:11:03;;;;;;;;;;;;;;;13.09;55.00;95788.94;5034106;28;1013;-58
2022/11/03 00:13:29;;;;;;;;;;;;;;;13.08;55.07;95792.59;5033799;28;1054;-59
2022/11/03 00:15:55;;;;;;;;;;;;;;;13.05;54.74;95790.25;5033891;28;1032;-58
2022/11/03 00:18:22;;;;;;;;;;;;;;;13.24;54.21;95797.22;5033548;28;1993;-58
2022/11/03 00:21:01;;;;;;;;;;;;;;;13.29;54.30;95794.88;5034008;28;958;-59
2022/11/03 00:23:28;;;;;;;;;;;;;;;13.15;54.67;95792.81;5033567;28;1205;-58
2022/11/03 00:25:55;;;;;;;;;;;;;;;12.99;55.16;95798.94;5033821;28;1029;-58
2022/11/03 00:28:21;;;;;;;;;;;;;;;13.06;55.07;95794.63;5033613;28;986;-58
2022/11/03 00:30:47;;;;;;;;;;;;;;;12.95;55.03;95789.53;5043432;28;1049;-59
2022/11/03 00:33:13;;;;;;;;;;;;;;;12.85;55.07;95792.31;5053376;28;1056;-58
2022/11/03 00:35:39;;;;;;;;;;;;;;;12.94;54.82;95785.16;5053645;28;1030;-59
2022/11/03 00:38:05;;;;;;;;;;;;;;;13.02;54.54;95787.06;5053384;28;1045;-58
2022/11/03 00:40:31;;;;;;;;;;;;;;;12.85;55.39;95786.13;5053129;28;1898;-58
2022/11/03 00:42:57;;;;;;;;;;;;;;;12.77;55.60;95791.47;5053040;28;1037;-59
2022/11/03 00:45:23;;;;;;;;;;;;;;;12.82;55.65;95786.44;5052942;28;1032;-58
2022/11/03 00:50:39;;;;;;;;;;;;;;;12.66;55.32;95779.97;5053510;28;1073;-58
2022/11/03 00:53:05;;;;;;;;;;;;;;;12.79;55.05;95776.03;5041658;28;1119;-59
2022/11/03 00:55:31;;;;;;;;;;;;;;;12.83;55.07;95785.44;5033319;28;1018;-59
2022/11/03 00:57:57;;;;;;;;;;;;;;;12.70;55.47;95775.13;5033286;28;1017;-58
2022/11/03 01:00:23;;;;;;;;;;;;;;;12.55;55.98;95780.25;5033055;28;1997;-59
2022/11/03 01:02:49;;;;;;;;;;;;;;;12.60;55.85;95771.75;5033435;28;1038;-58
2022/11/03 01:08:00;;;;;;;;;;;;;;;12.74;55.63;95772.97;5032879;28;1054;-59
2022/11/03 01:10:26;;;;;;;;;;;;;;;12.70;55.86;95778.66;5033030;28;1078;-58
2022/11/03 01:12:52;;;;;;;;;;;;;;;12.68;56.00;95782.50;5033042;28;1109;-58
2022/11/03 01:15:18;;;;;;;;;;;;;;;12.59;56.10;95778.94;5033007;28;1026;-58
2022/11/03 01:17:44;;;;;;;;;;;;;;;12.48;56.19;95777.38;5015706;28;1013;-58
2022/11/03 01:20:10;;;;;;;;;;;;;;;12.31;57.01;95778.22;5033108;28;1983;-59
2022/11/03 01:22:36;;;;;;;;;;;;;;;12.35;56.92;95784.13;5033017;28;1097;-59
2022/11/03 01:25:02;;;;;;;;;;;;;;;12.39;56.22;95780.16;5032854;28;1159;-58
2022/11/03 01:27:28;;;;;;;;;;;;;;;12.46;56.48;95786.53;5032831;28;1140;-58
2022/11/03 01:29:55;;;;;;;;;;;;;;;12.38;56.49;95778.47;5018269;28;1057;-58
2022/11/03 01:32:21;;;;;;;;;;;;;;;12.35;56.62;95776.06;5052938;28;986;-59
2022/11/03 01:34:47;;;;;;;;;;;;;;;12.16;57.18;95777.97;5052990;28;1109;-58
2022/11/03 01:37:13;;;;;;;;;;;;;;;12.03;57.81;95780.22;5052860;28;1108;-59
2022/11/03 01:39:39;;;;;;;;;;;;;;;12.10;57.76;95775.88;5052702;28;1902;-58
2022/11/03 01:42:05;;;;;;;;;;;;;;;12.21;57.30;95772.97;5051480;28;1050;-59
2022/11/03 01:44:33;;;;;;;;;;;;;;;12.10;57.45;95776.75;5052894;28;1308;-59
2022/11/03 01:47:02;;;;;;;;;;;;;;;12.01;57.74;95783.03;5052933;28;966;-58
2022/11/03 01:49:28;;;;;;;;;;;;;;;11.95;57.85;95782.81;5052740;28;1053;-58
2022/11/03 01:51:56;;;;;;;;;;;;;;;11.98;57.80;95782.50;5050951;28;1056;-59
2022/11/03 01:54:23;;;;;;;;;;;;;;;11.87;57.75;95784.38;5032699;28;1070;-58
2022/11/03 01:56:50;;;;;;;;;;;;;;;11.70;58.10;95786.09;5036380;28;923;-58
2022/11/03 01:59:17;;;;;;;;;;;;;;;11.81;57.33;95781.47;5036466;28;1910;-59
2022/11/03 02:01:44;;;;;;;;;;;;;;;11.90;57.06;95778.75;5036400;28;1069;-58
2022/11/03 02:04:14;;;;;;;;;;;;;;;12.01;56.73;95779.50;5036285;28;1133;-58
2022/11/03 02:06:40;;;;;;;;;;;;;;;11.98;56.65;95783.34;5036444;28;1045;-59
2022/11/03 02:09:07;;;;;;;;;;;;;;;11.90;56.85;95783.28;5036119;28;1121;-58
2022/11/03 02:14:18;;;;;;;;;;;;;;;11.66;57.50;95784.69;5036280;28;957;-58
2022/11/03 02:16:56;;;;;;;;;;;;;;;11.66;57.25;95787.34;5036189;28;1069;-58
2022/11/03 02:19:28;;;;;;;;;;;;;;;11.77;56.57;95782.78;5036003;28;1906;-58
2022/11/03 02:21:58;;;;;;;;;;;;;;;11.85;56.38;95786.38;5035977;28;1036;-58
2022/11/03 02:24:43;;;;;;;;;;;;;;;11.75;56.58;95776.75;5035716;28;1145;-58
2022/11/03 02:27:09;;;;;;;;;;;;;;;11.76;56.56;95784.63;5035861;28;1102;-58
2022/11/03 02:29:35;;;;;;;;;;;;;;;11.84;56.26;95784.69;5035818;28;1037;-58
2022/11/03 02:32:27;;;;;;;;;;;;;;;11.78;56.48;95776.41;5055568;28;1084;-58
2022/11/03 02:35:02;;;;;;;;;;;;;;;11.68;56.60;95777.31;5051037;28;1248;-58
2022/11/03 02:37:31;;;;;;;;;;;;;;;11.50;57.07;95789.88;5055558;28;929;-58
2022/11/03 02:40:03;;;;;;;;;;;;;;;11.35;57.26;95792.22;5055562;28;1923;-58
2022/11/03 02:42:30;;;;;;;;;;;;;;;11.10;58.08;95786.59;5055588;28;970;-58
2022/11/03 02:44:57;;;;;;;;;;;;;;;11.06;58.15;95790.56;5055760;28;1017;-58
2022/11/03 02:47:24;;;;;;;;;;;;;;;11.04;58.17;95789.88;5055384;28;1105;-58
2022/11/03 02:49:52;;;;;;;;;;;;;;;11.10;58.11;95793.78;5037945;28;1030;-58
2022/11/03 02:52:36;;;;;;;;;;;;;;;10.97;58.37;95790.63;5050125;28;1053;-58
2022/11/03 02:55:06;;;;;;;;;;;;;;;10.96;58.69;95795.09;5035385;28;1054;-58
2022/11/03 02:57:34;;;;;;;;;;;;;;;11.10;58.14;95805.31;5035278;28;1247;-58
2022/11/03 03:00:05;;;;;;;;;;;;;;;11.04;58.59;95791.69;5035449;28;1898;-58
2022/11/03 03:02:34;;;;;;;;;;;;;;;10.97;58.85;95794.13;5035302;28;1215;-58
2022/11/03 03:05:02;;;;;;;;;;;;;;;10.87;58.96;95793.31;5035175;28;1101;-58
2022/11/03 03:07:35;;;;;;;;;;;;;;;10.77;58.96;95789.84;5034269;28;997;-58
2022/11/03 03:10:09;;;;;;;;;;;;;;;10.80;59.11;95790.38;5035101;28;1002;-58
2022/11/03 03:12:37;;;;;;;;;;;;;;;10.74;59.23;95780.28;5035215;28;1064;-58
2022/11/03 03:15:05;;;;;;;;;;;;;;;10.94;58.43;95789.06;5035178;28;1046;-59
2022/11/03 03:17:34;;;;;;;;;;;;;;;10.94;58.55;95791.72;5034986;28;982;-59
2022/11/03 03:20:03;;;;;;;;;;;;;;;10.84;59.21;95778.41;5034905;28;1993;-59
2022/11/03 03:22:34;;;;;;;;;;;;;;;10.80;59.25;95786.88;5034716;28;1061;-60
2022/11/03 03:25:09;;;;;;;;;;;;;;;10.82;59.36;95785.72;5034672;28;1299;-58
2022/11/03 03:27:38;;;;;;;;;;;;;;;10.84;59.26;95783.75;5034938;28;985;-58
2022/11/03 03:30:05;;;;;;;;;;;;;;;10.82;58.63;95779.56;5020924;28;1115;-58
2022/11/03 03:32:35;;;;;;;;;;;;;;;10.69;58.95;95777.19;5054579;28;997;-58
2022/11/03 03:35:03;;;;;;;;;;;;;;;10.76;58.94;95778.31;5054569;28;1040;-59
2022/11/03 03:37:31;;;;;;;;;;;;;;;10.61;59.20;95787.78;5054460;28;930;-59
2022/11/03 03:39:59;;;;;;;;;;;;;;;10.51;60.03;95786.00;5054655;28;1985;-59
2022/11/03 03:42:27;;;;;;;;;;;;;;;10.53;59.61;95794.69;5053115;28;1108;-58
2022/11/03 03:44:54;;;;;;;;;;;;;;;10.62;59.49;95792.13;5054379;28;1041;-59
2022/11/03 03:47:32;;;;;;;;;;;;;;;10.66;59.34;95791.72;5054257;28;1086;-59
2022/11/03 03:49:58;;;;;;;;;;;;;;;10.55;59.58;95795.41;5054529;28;1035;-59
2022/11/03 03:52:24;;;;;;;;;;;;;;;10.63;59.32;95792.00;5052841;28;1127;-59
2022/11/03 03:54:51;;;;;;;;;;;;;;;10.69;58.92;95798.59;5054159;28;1050;-59
2022/11/03 03:57:21;;;;;;;;;;;;;;;10.73;58.93;95794.63;5054153;28;1049;-59
2022/11/03 03:59:47;;;;;;;;;;;;;;;10.74;59.09;95786.47;5036437;28;1985;-59
2022/11/03 04:02:13;;;;;;;;;;;;;;;10.72;59.32;95790.28;5054367;28;1022;-58
2022/11/03 04:04:40;;;;;;;;;;;;;;;10.73;58.96;95787.44;5053902;28;1056;-58
2022/11/03 04:09:51;;;;;;;;;;;;;;;10.63;59.15;95794.66;5054056;28;1016;-59
2022/11/03 04:23:17;;;;;;;;;;;;;;;10.26;60.33;95786.56;5053418;28;1195;-59
2022/11/03 04:25:50;;;;;;;;;;;;;;;10.29;59.81;95784.44;5053852;28;977;-59
2022/11/03 04:28:16;;;;;;;;;;;;;;;10.46;59.42;95792.75;5053611;28;958;-59
2022/11/03 04:30:42;;;;;;;;;;;;;;;10.24;60.09;95791.22;5053234;28;1423;-59
2022/11/03 04:33:16;;;;;;;;;;;;;;;10.28;60.01;95792.59;5053617;28;993;-59
2022/11/03 04:35:43;;;;;;;;;;;;;;;10.20;60.49;95787.97;5053390;28;1028;-59
2022/11/03 04:38:12;;;;;;;;;;;;;;;10.13;60.55;95787.72;5053677;28;1070;-59
2022/11/03 04:40:51;;;;;;;;;;;;;;;10.18;60.49;95789.94;5053243;28;1906;-59
2022/11/03 04:43:17;;;;;;;;;;;;;;;10.24;60.63;95785.88;5053376;28;991;-59
2022/11/03 04:45:44;;;;;;;;;;;;;;;10.26;60.28;95784.75;5053430;28;1144;-59
2022/11/03 04:48:15;;;;;;;;;;;;;;;10.15;60.72;95784.91;5053213;28;1009;-59
2022/11/03 04:50:42;;;;;;;;;;;;;;;10.08;60.87;95795.31;5053322;28;1042;-59
2022/11/03 04:53:11;;;;;;;;;;;;;;;10.19;60.68;95794.31;5041412;28;1116;-58
2022/11/03 04:55:39;;;;;;;;;;;;;;;10.34;60.08;95798.25;5033450;28;955;-57
2022/11/03 04:58:31;;;;;;;;;;;;;;;10.37;59.37;95801.63;5033284;28;1077;-58
2022/11/03 05:00:58;;;;;;;;;;;;;;;10.02;60.72;95806.56;5030465;28;1254;-58
2022/11/03 05:03:32;;;;;;;;;;;;;;;10.01;60.95;95804.03;5033340;28;997;-58
2022/11/03 05:06:07;;;;;;;;;;;;;;;10.15;60.69;95792.94;5033380;28;1041;-58
2022/11/03 05:08:33;;;;;;;;;;;;;;;9.93;61.21;95802.06;5033123;28;1003;-58
2022/11/03 05:10:59;;;;;;;;;;;;;;;9.85;61.54;95800.09;5033062;28;1046;-58
2022/11/03 05:13:27;;;;;;;;;;;;;;;10.04;61.31;95809.13;5033258;28;1002;-58
2022/11/03 05:15:58;;;;;;;;;;;;;;;9.97;61.36;95811.50;5033308;28;1069;-58
2022/11/03 05:18:27;;;;;;;;;;;;;;;9.91;61.74;95810.22;5032985;28;1042;-58
2022/11/03 05:21:01;;;;;;;;;;;;;;;10.19;60.66;95813.03;5033204;28;1002;-58
2022/11/03 05:23:29;;;;;;;;;;;;;;;10.24;60.66;95808.09;5032822;28;1334;-58
2022/11/03 05:25:56;;;;;;;;;;;;;;;10.26;60.84;95806.13;5032979;28;1038;-57
2022/11/03 05:28:27;;;;;;;;;;;;;;;10.30;61.02;95807.56;5033071;28;978;-58
2022/11/03 05:30:53;;;;;;;;;;;;;;;10.34;61.24;95811.63;5046335;28;1111;-58
2022/11/03 05:33:30;;;;;;;;;;;;;;;10.32;61.24;95816.28;5056834;28;1045;-58
2022/11/03 05:35:59;;;;;;;;;;;;;;;10.48;60.85;95809.50;5056818;28;1113;-58
2022/11/03 05:38:27;;;;;;;;;;;;;;;10.61;60.47;95822.56;5038929;28;1053;-58
2022/11/03 05:40:54;;;;;;;;;;;;;;;10.70;60.59;95819.00;5056881;28;1210;-58
2022/11/03 05:43:20;;;;;;;;;;;;;;;10.87;60.40;95818.25;5056809;28;971;-58
2022/11/03 05:45:48;;;;;;;;;;;;;;;11.14;59.86;95828.13;5056647;28;1112;-58
2022/11/03 05:48:29;;;;;;;;;;;;;;;11.26;59.82;95827.94;5056564;28;962;-58
2022/11/03 05:50:59;;;;;;;;;;;;;;;11.45;59.30;95840.38;5056470;28;1033;-58
2022/11/03 05:53:29;;;;;;;;;;;;;;;11.65;59.27;95833.91;5042097;28;1128;-58
2022/11/03 05:55:57;;;;;;;;;;;;;;;11.73;59.34;95833.97;5036705;28;962;-58
2022/11/03 05:58:26;;;;;;;;;;;;;;;11.86;58.57;95838.97;5036566;28;1025;-58
2022/11/03 06:00:53;;;;;;;;;;;;;;;12.09;57.59;95850.09;5036416;28;1910;-58
2022/11/03 06:03:23;;;;;;;;;;;;;;;12.28;57.52;95854.47;5036259;28;1018;-58
2022/11/03 06:05:50;;;;;;;;;;;;;;;12.64;56.38;95846.38;5036340;28;1121;-58
2022/11/03 06:08:22;;;;;;;;;;;;;;;13.11;54.56;95855.91;5018828;28;1820;-58
2022/11/03 06:10:50;;;;;;;;;;;;;;;13.38;54.19;95846.81;5036351;28;979;-58
2022/11/03 06:13:19;;;;;;;;;;;;;;;13.50;54.21;95854.59;5036092;28;1101;-59
2022/11/03 06:15:45;;;;;;;;;;;;;;;13.55;54.67;95858.47;5036165;28;1046;-59
2022/11/03 06:18:15;;;;;;;;;;;;;;;13.64;55.09;95862.88;5035926;28;1054;-58
2022/11/03 06:20:43;;;;;;;;;;;;;;;14.18;53.50;95870.56;5036214;28;1910;-59
2022/11/03 06:26:50;;;;;;;;;;;;;;;18.07;43.94;95881.50;5027219;28;1371;-59
2022/11/03 06:29:17;;;;;;;;;;;;;;;20.90;38.29;95887.56;5018405;28;1026;-59
2022/11/03 06:31:46;;;;;;;;;;;;;;;23.39;33.90;95903.63;5053335;28;1145;-60
2022/11/03 06:34:20;;;;;;;;;;;;;;;24.94;32.51;95912.63;5055666;28;1089;-60
2022/11/03 06:36:46;;;;;;;;;;;;;;;24.62;32.58;95904.63;5055726;28;1040;-60
2022/11/03 06:39:18;;;;;;;;;;;;;;;21.74;37.26;95883.34;5055379;28;1981;-60
2022/11/03 06:41:44;;;;;;;;;;;;;;;19.91;40.49;95878.06;5054575;28;1034;-61
2022/11/03 06:44:19;;;;;;;;;;;;;;;19.16;41.85;95871.53;5055705;28;1054;-60
2022/11/03 06:46:45;;;;;;;;;;;;;;;18.10;44.21;95874.88;5037997;28;1046;-60
2022/11/03 06:49:24;;;;;;;;;;;;;;;17.24;46.36;95871.81;5055372;28;919;-59
2022/11/03 06:51:50;;;;;;;;;;;;;;;16.63;47.89;95874.56;5054656;28;1108;-59
2022/11/03 06:54:16;;;;;;;;;;;;;;;16.37;48.24;95873.91;5017957;28;1124;-59
2022/11/03 06:56:42;;;;;;;;;;;;;;;16.30;48.74;95874.81;5017993;28;967;-59
2022/11/03 06:59:13;;;;;;;;;;;;;;;16.27;48.54;95875.97;5035346;28;1991;-60
2022/11/03 07:01:39;;;;;;;;;;;;;;;16.38;48.19;95864.78;5035288;28;1125;-60
2022/11/03 07:04:13;;;;;;;;;;;;;;;16.66;47.81;95876.91;5035180;28;1054;-59
2022/11/03 07:06:39;;;;;;;;;;;;;;;17.23;46.48;95881.81;5035403;28;1030;-60
2022/11/03 07:09:12;;;;;;;;;;;;;;;17.78;45.37;95884.25;5035308;28;1024;-60
2022/11/03 07:11:46;;;;;;;;;;;;;;;18.54;44.35;95877.44;5035230;28;966;-60
2022/11/03 07:14:14;;;;;;;;;;;;;;;19.96;40.82;95889.16;5017468;28;1066;-60
2022/11/03 07:16:44;;;;;;;;;;;;;;;21.78;37.54;95898.19;5034904;28;1025;-60
2022/11/03 07:19:25;;;;;;;;;;;;;;;23.59;34.63;95917.94;5035108;28;1910;-60
2022/11/03 07:21:51;;;;;;;;;;;;;;;24.06;33.49;95916.69;5035095;28;1029;-60
2022/11/03 07:24:21;;;;;;;;;;;;;;;21.83;36.46;95901.13;5034873;28;1105;-60
2022/11/03 07:26:48;;;;;;;;;;;;;;;20.65;38.85;95881.88;5034683;28;1208;-60
2022/11/03 07:29:17;;;;;;;;;;;;;;;20.08;39.82;95882.09;5034656;28;962;-60
2022/11/03 07:31:43;;;;;;;;;;;;;;;21.60;37.96;95882.53;5052380;28;1053;-60
2022/11/03 07:34:14;;;;;;;;;;;;;;;22.98;35.68;95894.91;5054598;28;1125;-61
2022/11/03 07:36:41;;;;;;;;;;;;;;;24.08;34.25;95892.69;5054561;28;1045;-61
2022/11/03 07:39:10;;;;;;;;;;;;;;;22.07;36.79;95884.28;5054436;28;1914;-60
2022/11/03 07:41:36;;;;;;;;;;;;;;;20.11;40.15;95869.16;5054328;28;1036;-60
2022/11/03 07:44:02;;;;;;;;;;;;;;;19.33;41.52;95859.38;5054762;28;990;-60
2022/11/03 07:46:28;;;;;;;;;;;;;;;18.76;42.33;95860.34;5054505;28;1050;-60
2022/11/03 07:49:00;;;;;;;;;;;;;;;18.46;43.48;95855.06;5054476;28;1021;-60
2022/11/03 07:51:29;;;;;;;;;;;;;;;19.28;40.73;95857.22;5053112;28;1104;-60
2022/11/03 07:54:00;;;;;;;;;;;;;;;20.26;39.53;95864.41;5017852;28;1075;-60
2022/11/03 07:56:31;;;;;;;;;;;;;;;20.09;39.46;95862.06;5016944;28;955;-60
2022/11/03 07:58:58;;;;;;;;;;;;;;;19.69;40.24;95859.16;5000203;28;1918;-60
2022/11/03 08:01:29;;;;;;;;;;;;;;;19.50;40.96;95851.72;5034246;28;966;-60
2022/11/03 08:04:05;;;;;;;;;;;;;;;20.54;39.11;95855.28;5034231;28;1020;-61
2022/11/03 08:06:31;;;;;;;;;;;;;;;20.80;38.32;95855.34;5033961;28;1121;-60
2022/11/03 08:08:57;;;;;;;;;;;;;;;20.78;38.31;95859.34;5033968;28;1062;-60
2022/11/03 08:11:24;;;;;;;;;;;;;;;20.31;38.57;95856.50;5033842;28;1026;-60
2022/11/03 08:13:50;;;;;;;;;;;;;;;20.08;39.73;95845.97;5033947;28;1935;-59
2022/11/03 08:16:16;;;;;;;;;;;;;;;22.14;36.28;95860.56;5033914;28;970;-59
2022/11/03 08:18:43;;;;;;;;;;;;;;;21.56;36.19;95854.06;5033876;28;1999;-59
2022/11/03 08:21:09;;;;;;;;;;;;;;;20.34;38.97;95842.50;5033862;28;990;-59
2022/11/03 08:23:35;;;;;;;;;;;;;;;19.84;40.03;95842.78;5033627;28;1049;-59
2022/11/03 08:26:01;;;;;;;;;;;;;;;20.44;39.29;95845.66;5033546;28;1086;-59
2022/11/03 08:28:27;;;;;;;;;;;;;;;22.58;35.27;95851.56;5016309;28;1050;-58
2022/11/03 08:30:53;;;;;;;;;;;;;;;24.68;32.11;95854.53;5044220;28;1100;-59
2022/11/03 08:33:19;;;;;;;;;;;;;;;26.25;30.40;95860.41;5053549;28;978;-59
2022/11/03 08:35:45;;;;;;;;;;;;;;;24.80;31.77;95854.56;5053585;28;1032;-59
2022/11/03 08:38:11;;;;;;;;;;;;;;;24.30;32.56;95852.91;5053310;28;1001;-59
2022/11/03 08:40:37;;;;;;;;;;;;;;;26.41;29.95;95856.09;5053531;28;1979;-59
2022/11/03 08:43:05;;;;;;;;;;;;;;;27.53;28.79;95848.22;5053550;28;1022;-59
2022/11/03 08:45:31;;;;;;;;;;;;;;;28.13;27.72;95859.53;5053391;28;1054;-59
2022/11/03 08:47:57;;;;;;;;;;;;;;;29.87;26.05;95860.44;5053298;28;1141;-59
2022/11/03 08:50:23;;;;;;;;;;;;;;;28.53;27.37;95867.50;5053286;28;1050;-59
2022/11/03 08:52:49;;;;;;;;;;;;;;;26.37;30.27;95843.09;5043880;28;1096;-60
2022/11/03 08:55:15;;;;;;;;;;;;;;;25.44;31.87;95838.38;5033438;28;1037;-59
2022/11/03 08:57:41;;;;;;;;;;;;;;;24.82;32.20;95826.97;5033269;28;1042;-59
2022/11/03 09:00:08;;;;;;;;;;;;;;;23.96;34.16;95829.81;5033353;28;1906;-59
2022/11/03 09:02:34;;;;;;;;;;;;;;;23.70;34.33;95820.81;5033259;28;1028;-59
2022/11/03 09:05:00;;;;;;;;;;;;;;;22.56;36.38;95815.53;5015042;28;1125;-59
2022/11/03 09:07:27;;;;;;;;;;;;;;;22.01;37.34;95802.41;5033045;28;1117;-59
2022/11/03 09:09:53;;;;;;;;;;;;;;;21.74;37.83;95800.84;5033421;28;1038;-59
2022/11/03 09:12:19;;;;;;;;;;;;;;;21.48;38.20;95796.34;5033291;28;1017;-59
2022/11/03 09:14:46;;;;;;;;;;;;;;;21.59;38.04;95792.97;5033106;28;1042;-58
2022/11/03 09:17:12;;;;;;;;;;;;;;;21.97;36.94;95789.47;5033081;28;959;-58
2022/11/03 09:19:38;;;;;;;;;;;;;;;21.98;36.88;95789.22;5033058;28;1898;-58
2022/11/03 09:22:04;;;;;;;;;;;;;;;21.83;36.63;95781.34;5033057;28;1025;-62
2022/11/03 09:24:30;;;;;;;;;;;;;;;21.76;36.46;95780.53;5032945;28;1054;-59
2022/11/03 09:26:56;;;;;;;;;;;;;;;21.92;36.73;95771.03;5032886;28;1228;-59
2022/11/03 09:29:22;;;;;;;;;;;;;;;22.11;35.96;95773.88;5015402;28;1054;-59
2022/11/03 09:31:48;;;;;;;;;;;;;;;22.51;34.57;95779.09;5051015;28;1104;-60
2022/11/03 09:34:14;;;;;;;;;;;;;;;23.12;34.43;95767.47;5052868;28;1060;-59
2022/11/03 09:36:40;;;;;;;;;;;;;;;23.00;34.82;95767.34;5052869;28;1155;-59
2022/11/03 09:39:06;;;;;;;;;;;;;;;22.86;34.53;95768.56;5052655;28;1906;-59
2022/11/03 09:41:33;;;;;;;;;;;;;;;22.93;35.94;95757.56;5052855;28;1045;-59
2022/11/03 09:43:59;;;;;;;;;;;;;;;23.34;35.18;95758.88;5052749;28;1049;-59
2022/11/03 09:46:27;;;;;;;;;;;;;;;24.28;34.50;95753.94;5051649;28;804;-59
2022/11/03 09:48:54;;;;;;;;;;;;;;;26.26;31.31;95765.34;5052809;28;977;-59
2022/11/03 09:51:21;;;;;;;;;;;;;;;27.88;28.80;95781.13;5052582;28;1029;-59
2022/11/03 09:53:47;;;;;;;;;;;;;;;29.01;27.76;95783.19;5035361;28;1057;-59
2022/11/03 09:56:16;;;;;;;;;;;;;;;29.65;26.78;95778.69;5032869;28;1041;-59
2022/11/03 09:58:42;;;;;;;;;;;;;;;29.83;26.25;95773.88;5015057;28;1987;-59
2022/11/03 10:01:10;;;;;;;;;;;;;;;29.73;26.21;95778.25;5032740;28;1094;-59
2022/11/03 10:03:38;;;;;;;;;;;;;;;29.74;26.35;95774.38;5032714;28;1034;-60
2022/11/03 10:06:04;;;;;;;;;;;;;;;29.62;26.16;95759.97;5032633;28;1020;-60
2022/11/03 10:08:31;;;;;;;;;;;;;;;29.34;27.18;95759.22;5032538;28;1070;-60
2022/11/03 10:10:57;;;;;;;;;;;;;;;29.02;27.40;95759.25;5032773;28;1029;-59
2022/11/03 10:13:27;;;;;;;;;;;;;;;28.59;28.08;95750.91;5015178;28;1032;-59
2022/11/03 10:15:53;;;;;;;;;;;;;;;28.11;28.02;95751.75;5033459;28;975;-60
2022/11/03 10:18:19;;;;;;;;;;;;;;;27.63;28.50;95735.75;5035970;28;986;-59
2022/11/03 10:20:45;;;;;;;;;;;;;;;27.05;28.69;95729.69;5036000;28;1981;-59
2022/11/03 10:23:11;;;;;;;;;;;;;;;26.27;29.12;95723.13;5018463;28;1128;-59
2022/11/03 10:25:38;;;;;;;;;;;;;;;25.09;30.34;95707.81;5035834;28;1255;-59
2022/11/03 10:28:18;;;;;;;;;;;;;;;24.29;32.54;95705.59;5036154;28;1017;-59
2022/11/03 10:30:47;;;;;;;;;;;;;;;23.74;32.55;95701.91;5045206;28;1061;-60
2022/11/03 10:33:28;;;;;;;;;;;;;;;23.38;34.20;95686.41;5055672;28;1134;-60
2022/11/03 10:35:58;;;;;;;;;;;;;;;23.09;34.77;95677.13;5055738;28;1109;-58
2022/11/03 10:38:30;;;;;;;;;;;;;;;22.90;35.25;95668.06;5037823;28;1677;-59
2022/11/03 10:41:07;;;;;;;;;;;;;;;22.70;35.58;95660.06;5055634;28;1913;-60
2022/11/03 10:43:34;;;;;;;;;;;;;;;22.54;36.27;95650.59;5055378;28;1061;-60
2022/11/03 10:46:09;;;;;;;;;;;;;;;22.49;36.13;95650.44;5055780;28;967;-59
2022/11/03 10:48:35;;;;;;;;;;;;;;;22.39;36.46;95643.59;5055388;28;911;-59
2022/11/03 10:51:01;;;;;;;;;;;;;;;22.26;36.53;95643.69;5037908;28;985;-59
2022/11/03 10:53:27;;;;;;;;;;;;;;;22.02;36.64;95626.25;5040816;28;1052;-59
2022/11/03 10:55:54;;;;;;;;;;;;;;;21.84;37.40;95621.59;5035483;28;963;-58
2022/11/03 10:58:20;;;;;;;;;;;;;;;21.65;37.73;95623.41;5035306;28;1038;-57
2022/11/03 11:00:46;;;;;;;;;;;;;;;21.45;38.35;95618.06;5017978;28;1898;-58
2022/11/03 11:03:12;;;;;;;;;;;;;;;21.28;38.13;95612.25;5035503;28;1036;-58
2022/11/03 11:05:45;;;;;;;;;;;;;;;21.22;38.48;95608.50;5035385;28;951;-58
2022/11/03 11:08:13;;;;;;;;;;;;;;;21.17;38.10;95602.91;5035095;28;1065;-58
2022/11/03 11:10:42;;;;;;;;;;;;;;;21.18;37.96;95590.97;5035110;28;1195;-58
2022/11/03 11:13:17;;;;;;;;;;;;;;;21.16;38.81;95589.53;5035361;28;1001;-61
2022/11/03 11:15:45;;;;;;;;;;;;;;;21.04;39.14;95586.66;5035258;28;1140;-58
2022/11/03 11:18:31;;;;;;;;;;;;;;;21.00;38.62;95582.69;5035048;28;1021;-59
2022/11/03 11:20:57;;;;;;;;;;;;;;;21.13;38.57;95579.91;5034815;28;1922;-58
2022/11/03 11:23:26;;;;;;;;;;;;;;;21.14;38.47;95573.44;5034802;28;955;-57
2022/11/03 11:26:10;;;;;;;;;;;;;;;21.09;39.20;95565.06;5034929;28;1129;-58
2022/11/03 11:29:07;;;;;;;;;;;;;;;21.10;38.45;95561.31;5034338;28;1053;-58
2022/11/03 11:31:39;;;;;;;;;;;;;;;21.30;38.18;95553.03;5050509;28;1104;-58
2022/11/03 11:34:13;;;;;;;;;;;;;;;21.38;37.63;95554.66;5054854;28;1010;-58
2022/11/03 11:36:40;;;;;;;;;;;;;;;21.40;36.70;95555.31;5054661;28;1084;-58
2022/11/03 11:39:11;;;;;;;;;;;;;;;21.43;36.98;95563.84;5054513;28;1902;-59
2022/11/03 11:41:55;;;;;;;;;;;;;;;21.50;37.38;95550.22;5054437;28;1026;-58
2022/11/03 11:44:40;;;;;;;;;;;;;;;21.58;36.75;95544.53;5054348;28;1062;-58
2022/11/03 11:47:25;;;;;;;;;;;;;;;21.66;37.03;95543.41;5054540;28;1085;-59
2022/11/03 11:50:01;;;;;;;;;;;;;;;21.61;35.41;95549.53;5054771;28;1057;-59
2022/11/03 11:52:28;;;;;;;;;;;;;;;21.56;36.19;95543.91;5047847;28;1100;-58
2022/11/03 11:54:54;;;;;;;;;;;;;;;21.47;35.26;95537.06;5034364;28;1006;-59
2022/11/03 11:57:23;;;;;;;;;;;;;;;21.47;35.01;95534.34;5034425;28;1077;-59
2022/11/03 11:59:50;;;;;;;;;;;;;;;21.46;34.44;95538.13;5034315;28;2000;-59
2022/11/03 12:02:22;;;;;;;;;;;;;;;21.42;34.50;95531.44;5034276;28;1050;-58
2022/11/03 12:04:52;;;;;;;;;;;;;;;21.42;35.34;95524.09;5034167;28;1153;-58
2022/11/03 12:07:31;;;;;;;;;;;;;;;21.44;35.28;95516.59;5033978;28;1061;-58
2022/11/03 12:10:05;;;;;;;;;;;;;;;21.43;35.34;95522.22;5016613;28;1066;-60
2022/11/03 12:12:32;;;;;;;;;;;;;;;21.35;35.32;95515.16;5033959;28;1045;-58
2022/11/03 12:14:58;;;;;;;;;;;;;;;21.28;34.29;95514.34;5033953;28;1058;-58
2022/11/03 12:17:24;;;;;;;;;;;;;;;21.22;34.46;95518.78;5033845;28;1050;-58
2022/11/03 12:19:51;;;;;;;;;;;;;;;21.22;34.15;95505.19;5033698;28;1993;-58
2022/11/03 12:22:23;;;;;;;;;;;;;;;21.22;34.54;95509.78;5033707;28;1093;-58
2022/11/03 12:24:49;;;;;;;;;;;;;;;21.20;35.34;95501.84;5033990;28;1049;-59
2022/11/03 12:27:17;;;;;;;;;;;;;;;21.18;35.06;95506.69;5033560;28;1105;-58
2022/11/03 12:29:43;;;;;;;;;;;;;;;21.21;35.40;95500.00;5034561;28;1103;-58
2022/11/03 12:32:09;;;;;;;;;;;;;;;21.27;35.23;95499.09;5053614;28;966;-58
2022/11/03 12:34:35;;;;;;;;;;;;;;;21.33;35.69;95491.97;5053448;28;1010;-58
2022/11/03 12:37:01;;;;;;;;;;;;;;;21.39;35.76;95489.16;5053723;28;1017;-58
2022/11/03 12:39:27;;;;;;;;;;;;;;;21.34;35.90;95485.44;5052531;28;1906;-58
2022/11/03 12:41:53;;;;;;;;;;;;;;;21.29;35.57;95480.69;5053431;28;1049;-58
2022/11/03 12:44:19;;;;;;;;;;;;;;;21.30;35.37;95482.34;5053326;28;1026;-58
2022/11/03 12:46:45;;;;;;;;;;;;;;;21.28;35.18;95475.47;5053317;28;1034;-58
2022/11/03 12:49:11;;;;;;;;;;;;;;;21.30;35.09;95468.72;5053191;28;1002;-58
2022/11/03 12:51:37;;;;;;;;;;;;;;;21.33;34.63;95471.03;5053513;28;977;-58
2022/11/03 12:54:03;;;;;;;;;;;;;;;21.35;35.21;95468.91;5033823;28;1049;-58
2022/11/03 12:56:29;;;;;;;;;;;;;;;21.38;35.13;95457.59;5033541;28;971;-58
2022/11/03 12:58:55;;;;;;;;;;;;;;;21.36;34.40;95457.00;5033261;28;1906;-58
2022/11/03 13:01:21;;;;;;;;;;;;;;;21.37;34.41;95460.53;5033255;28;978;-58
2022/11/03 13:03:47;;;;;;;;;;;;;;;21.36;34.47;95458.84;5033223;28;1022;-58
2022/11/03 13:06:13;;;;;;;;;;;;;;;21.28;34.01;95449.09;5033332;28;967;-58
2022/11/03 13:08:39;;;;;;;;;;;;;;;21.25;34.85;95453.09;5033235;28;1062;-59
2022/11/03 13:13:51;;;;;;;;;;;;;;;21.21;35.42;95449.16;5033244;28;1013;-58
2022/11/03 13:16:17;;;;;;;;;;;;;;;21.15;35.34;95450.03;5033011;28;1072;-59
2022/11/03 13:18:43;;;;;;;;;;;;;;;21.17;35.50;95452.50;5033071;28;1058;-58
2022/11/03 13:21:09;;;;;;;;;;;;;;;21.14;35.04;95447.53;5033255;28;1910;-59
2022/11/03 13:23:35;;;;;;;;;;;;;;;21.10;35.55;95447.13;5033143;28;1037;-59
2022/11/03 13:26:01;;;;;;;;;;;;;;;21.08;35.63;95441.09;5015481;28;1149;-59
2022/11/03 13:28:27;;;;;;;;;;;;;;;21.09;35.96;95441.91;5033026;28;1017;-59
2022/11/03 13:30:53;;;;;;;;;;;;;;;21.09;35.85;95434.59;5043351;28;1053;-59
2022/11/03 13:33:19;;;;;;;;;;;;;;;21.06;36.39;95440.47;5052826;28;1100;-59